Time;durP1;ratioP1;P1;durP2;ratioP2;P2;SDS_P1;SDS_P2;PMS_P1;PMS_P2;Temp;Humidity;BMP_temperature;BMP_pressure;BME280_temperature;BME280_humidity;BME280_pressure;Samples;Min_cycle;Max_cycle;Signal;HPM_P1;HPM_P2
2021/12/29 00:01:54;;;;;;;1.48;1.05;;;19.80;46.00;;;;;;5105693;27;49050;-17
2021/12/29 00:04:20;;;;;;;3.40;1.30;;;19.80;46.00;;;;;;5105520;27;46880;-17
2021/12/29 00:06:49;;;;;;;3.00;1.30;;;19.80;46.00;;;;;;5105573;27;46845;-17
2021/12/29 00:09:15;;;;;;;1.45;0.90;;;19.80;46.00;;;;;;5105422;27;47196;-17
2021/12/29 00:11:42;;;;;;;1.25;0.88;;;19.80;46.00;;;;;;5105697;27;47835;-17
2021/12/29 00:14:09;;;;;;;1.88;1.00;;;19.80;46.00;;;;;;5107748;27;47637;-16
2021/12/29 00:16:36;;;;;;;1.52;1.02;;;19.80;45.90;;;;;;5109011;27;46822;-16
2021/12/29 00:19:03;;;;;;;2.22;0.90;;;19.80;45.90;;;;;;5108894;27;47186;-16
2021/12/29 00:21:32;;;;;;;1.30;0.90;;;19.80;45.90;;;;;;5109174;27;47003;-17
2021/12/29 00:24:00;;;;;;;2.58;1.02;;;19.80;45.90;;;;;;5108819;27;46991;-16
2021/12/29 00:26:27;;;;;;;2.30;1.20;;;19.80;45.90;;;;;;5109143;27;46879;-16
2021/12/29 00:28:54;;;;;;;2.33;1.00;;;19.80;45.90;;;;;;5108810;27;47201;-16
2021/12/29 00:31:21;;;;;;;1.80;0.90;;;19.80;45.90;;;;;;5108556;27;48769;-17
2021/12/29 00:33:47;;;;;;;1.75;1.08;;;19.90;45.90;;;;;;5108897;27;46888;-16
2021/12/29 00:36:14;;;;;;;2.53;1.48;;;19.90;45.90;;;;;;5108910;27;46886;-16
2021/12/29 00:38:42;;;;;;;2.13;1.25;;;19.90;45.90;;;;;;5109040;27;46922;-16
2021/12/29 00:41:10;;;;;;;2.08;1.15;;;19.80;45.90;;;;;;5108827;27;47060;-16
2021/12/29 00:43:36;;;;;;;2.15;0.90;;;19.90;45.90;;;;;;5108646;27;47590;-16
2021/12/29 00:46:03;;;;;;;1.38;0.93;;;19.90;45.90;;;;;;5108814;27;47007;-16
2021/12/29 00:48:36;;;;;;;2.28;1.10;;;19.90;45.90;;;;;;5108651;27;46826;-16
2021/12/29 00:51:03;;;;;;;1.67;0.90;;;19.90;45.90;;;;;;5108494;27;48812;-16
2021/12/29 00:53:29;;;;;;;2.10;1.13;;;19.90;45.90;;;;;;5108389;27;47171;-17
2021/12/29 00:55:56;;;;;;;1.52;0.93;;;19.80;45.90;;;;;;5108859;27;46891;-17
2021/12/29 00:58:24;;;;;;;1.45;1.10;;;19.90;45.90;;;;;;5108745;27;46874;-17
2021/12/29 01:00:51;;;;;;;1.95;1.13;;;19.90;45.80;;;;;;5108387;27;48235;-16
2021/12/29 01:03:17;;;;;;;1.40;0.88;;;19.90;45.80;;;;;;5108439;27;46905;-17
2021/12/29 01:05:44;;;;;;;1.85;1.10;;;19.90;45.80;;;;;;5108312;27;47055;-16
2021/12/29 01:08:11;;;;;;;2.45;1.08;;;19.90;45.80;;;;;;5108775;27;46922;-17
2021/12/29 01:10:38;;;;;;;1.50;0.88;;;19.90;45.80;;;;;;5108300;27;47089;-16
2021/12/29 01:13:08;;;;;;;1.30;0.90;;;19.90;45.80;;;;;;5108419;27;46913;-17
2021/12/29 01:15:55;;;;;;;1.75;1.17;;;19.90;45.70;;;;;;5108119;27;46934;-16
2021/12/29 01:18:22;;;;;;;1.58;0.80;;;19.90;45.70;;;;;;5108036;27;46732;-17
2021/12/29 01:20:49;;;;;;;1.52;0.90;;;19.90;45.80;;;;;;5108119;27;48810;-16
2021/12/29 01:23:15;;;;;;;1.73;0.95;;;19.90;46.40;;;;;;5107971;27;47118;-17
2021/12/29 01:25:42;;;;;;;2.03;1.15;;;19.90;45.70;;;;;;5107841;27;46843;-16
2021/12/29 01:28:09;;;;;;;1.92;1.20;;;19.90;45.70;;;;;;5108073;27;46906;-16
2021/12/29 01:30:37;;;;;;;1.23;0.80;;;20.00;45.70;;;;;;5107961;27;48788;-16
2021/12/29 01:33:06;;;;;;;1.55;1.10;;;20.00;45.80;;;;;;5108364;27;46887;-17
2021/12/29 01:35:32;;;;;;;2.03;0.90;;;19.90;45.70;;;;;;5107899;27;46867;-16
2021/12/29 01:37:59;;;;;;;1.58;0.93;;;20.00;45.80;;;;;;5108247;27;46904;-16
2021/12/29 01:40:26;;;;;;;2.42;1.05;;;20.00;45.80;;;;;;5107787;27;48064;-16
2021/12/29 01:42:53;;;;;;;2.45;1.13;;;20.00;45.70;;;;;;5107847;27;46751;-16
2021/12/29 01:45:20;;;;;;;2.20;0.90;;;20.00;45.60;;;;;;5107104;27;46934;-16
2021/12/29 01:47:48;;;;;;;2.53;1.00;;;20.00;45.70;;;;;;5108349;27;46908;-17
2021/12/29 01:50:15;;;;;;;2.20;1.00;;;20.00;45.70;;;;;;5107505;27;47064;-16
2021/12/29 01:52:42;;;;;;;1.75;1.08;;;20.00;46.30;;;;;;5107729;27;46851;-16
2021/12/29 01:55:11;;;;;;;1.63;0.77;;;20.00;45.70;;;;;;5107729;27;47178;-16
2021/12/29 01:57:38;;;;;;;1.95;1.00;;;20.00;45.60;;;;;;5107869;27;47307;-17
2021/12/29 02:00:06;;;;;;;1.67;0.93;;;20.00;45.60;;;;;;5107207;27;48579;-16
2021/12/29 02:02:33;;;;;;;2.28;0.90;;;20.00;45.60;;;;;;5107309;27;46926;-17
2021/12/29 02:05:01;;;;;;;1.05;0.93;;;20.00;45.60;;;;;;5106948;27;46896;-16
2021/12/29 02:07:28;;;;;;;1.98;1.10;;;20.00;45.70;;;;;;5107718;27;46829;-16
2021/12/29 02:09:55;;;;;;;1.15;0.80;;;20.00;45.60;;;;;;5107232;27;48885;-16
2021/12/29 02:12:22;;;;;;;3.28;0.90;;;20.00;45.60;;;;;;5107305;27;46822;-16
2021/12/29 02:14:48;;;;;;;1.35;0.90;;;20.00;45.60;;;;;;5107165;27;46842;-16
2021/12/29 02:17:15;;;;;;;1.25;0.90;;;20.00;45.50;;;;;;5107240;27;47229;-17
2021/12/29 02:19:45;;;;;;;2.20;1.10;;;20.00;45.60;;;;;;5107134;27;47075;-16
2021/12/29 02:22:26;;;;;;;2.00;1.10;;;20.00;45.60;;;;;;5107243;27;46973;-17
2021/12/29 02:25:05;;;;;;;1.67;1.00;;;20.00;45.60;;;;;;5107067;27;46852;-16
2021/12/29 02:27:32;;;;;;;2.47;0.98;;;20.00;45.50;;;;;;5107223;27;47209;-16
2021/12/29 02:29:59;;;;;;;1.33;0.75;;;20.00;45.50;;;;;;5106803;27;46946;-16
2021/12/29 02:32:25;;;;;;;1.80;1.00;;;20.00;45.50;;;;;;5107043;27;46904;-17
2021/12/29 02:34:52;;;;;;;1.95;1.02;;;20.00;45.60;;;;;;5106669;27;46876;-17
2021/12/29 02:37:22;;;;;;;1.10;0.80;;;20.00;45.50;;;;;;5106069;27;46908;-18
2021/12/29 02:39:50;;;;;;;1.40;0.90;;;20.00;45.50;;;;;;5106445;27;47067;-17
2021/12/29 02:42:17;;;;;;;2.00;1.05;;;20.10;45.50;;;;;;5106859;27;46969;-16
2021/12/29 02:44:45;;;;;;;1.20;0.77;;;20.10;45.50;;;;;;5105794;27;46993;-17
2021/12/29 02:47:12;;;;;;;1.65;1.00;;;20.10;45.50;;;;;;5106948;27;47121;-17
2021/12/29 02:49:39;;;;;;;1.35;0.90;;;20.10;45.60;;;;;;5106523;27;47985;-17
2021/12/29 02:52:06;;;;;;;1.45;1.02;;;20.10;45.50;;;;;;5106434;27;46917;-17
2021/12/29 02:54:34;;;;;;;1.50;1.15;;;20.10;45.50;;;;;;5106331;27;46959;-17
2021/12/29 02:57:01;;;;;;;1.52;0.90;;;20.10;45.50;;;;;;5106648;27;47257;-17
2021/12/29 02:59:27;;;;;;;1.55;0.90;;;20.10;45.50;;;;;;5106452;27;48896;-16
2021/12/29 03:01:54;;;;;;;2.22;1.00;;;20.10;45.50;;;;;;5106641;27;46852;-16
2021/12/29 03:04:21;;;;;;;1.80;1.00;;;20.10;45.60;;;;;;5106225;27;46894;-16
2021/12/29 03:06:48;;;;;;;1.98;1.00;;;20.10;45.50;;;;;;5106777;27;47100;-16
2021/12/29 03:09:16;;;;;;;1.85;1.08;;;20.10;45.50;;;;;;5106168;27;48230;-16
2021/12/29 03:11:44;;;;;;;1.00;0.60;;;20.10;45.50;;;;;;5106209;27;46811;-16
2021/12/29 03:14:11;;;;;;;1.73;0.85;;;20.10;45.50;;;;;;5106421;27;46817;-17
2021/12/29 03:16:38;;;;;;;1.38;0.90;;;20.10;45.50;;;;;;5106717;27;47118;-16
2021/12/29 03:19:05;;;;;;;1.75;1.00;;;20.10;45.50;;;;;;5105694;27;48301;-16
2021/12/29 03:21:32;;;;;;;1.77;0.80;;;20.10;45.50;;;;;;5106336;27;47411;-16
2021/12/29 03:23:59;;;;;;;1.17;0.80;;;20.10;45.50;;;;;;5105888;27;46742;-16
2021/12/29 03:26:25;;;;;;;2.05;0.85;;;20.10;45.40;;;;;;5106235;27;46890;-17
2021/12/29 03:28:54;;;;;;;3.00;1.02;;;20.10;45.40;;;;;;5106039;27;48373;-16
2021/12/29 03:31:21;;;;;;;2.17;1.02;;;20.10;45.40;;;;;;5105918;27;46926;-16
2021/12/29 03:33:48;;;;;;;1.90;0.85;;;20.10;45.40;;;;;;5105954;27;47037;-16
2021/12/29 03:36:15;;;;;;;1.17;0.70;;;20.10;45.50;;;;;;5106344;27;46926;-16
2021/12/29 03:38:42;;;;;;;1.42;0.90;;;20.10;45.40;;;;;;5105692;27;48104;-16
2021/12/29 03:41:10;;;;;;;1.42;0.88;;;20.10;45.40;;;;;;5106061;27;46915;-16
2021/12/29 03:43:36;;;;;;;2.25;0.82;;;20.20;45.40;;;;;;5105862;27;47063;-16
2021/12/29 03:46:05;;;;;;;1.75;0.90;;;20.20;45.40;;;;;;5106022;27;46899;-17
2021/12/29 03:48:32;;;;;;;1.58;0.80;;;20.10;45.40;;;;;;5109237;27;49049;-16
2021/12/29 03:50:59;;;;;;;1.10;0.90;;;20.10;45.40;;;;;;5109490;27;46919;-16
2021/12/29 03:53:26;;;;;;;1.73;0.80;;;20.10;45.30;;;;;;5109383;27;46930;-16
2021/12/29 03:55:53;;;;;;;2.17;0.88;;;20.20;45.40;;;;;;5109787;27;47024;-17
2021/12/29 03:58:19;;;;;;;1.85;0.90;;;20.20;45.40;;;;;;5109470;27;48035;-16
2021/12/29 04:00:46;;;;;;;1.45;0.95;;;20.20;45.40;;;;;;5109384;27;47010;-16
2021/12/29 04:03:14;;;;;;;1.60;0.88;;;20.20;45.40;;;;;;5109611;27;46933;-16
2021/12/29 04:05:41;;;;;;;1.98;0.85;;;20.20;45.40;;;;;;5109713;27;46936;-16
2021/12/29 04:08:08;;;;;;;2.38;0.85;;;20.20;45.40;;;;;;5109343;27;47839;-16
2021/12/29 04:10:34;;;;;;;1.55;0.85;;;20.20;45.30;;;;;;5109050;27;47575;-16
2021/12/29 04:13:01;;;;;;;1.33;1.00;;;20.20;45.30;;;;;;5109132;27;46973;-16
2021/12/29 04:15:29;;;;;;;1.45;0.77;;;20.20;45.30;;;;;;5109362;27;46935;-16
2021/12/29 04:17:58;;;;;;;0.77;0.63;;;20.20;45.40;;;;;;5109211;27;48272;-16
2021/12/29 04:23:11;;;;;;;1.25;0.65;;;20.20;45.30;;;;;;5106335;27;47020;-17
2021/12/29 04:25:38;;;;;;;2.67;0.95;;;20.20;45.30;;;;;;5108778;27;46869;-16
2021/12/29 04:28:07;;;;;;;1.15;0.70;;;20.20;45.30;;;;;;5108989;27;48553;-17
2021/12/29 04:30:34;;;;;;;1.42;0.77;;;20.20;45.30;;;;;;5108768;27;46814;-16
2021/12/29 04:33:01;;;;;;;1.45;0.77;;;20.20;45.30;;;;;;5108844;27;46888;-16
2021/12/29 04:35:29;;;;;;;1.15;0.85;;;20.20;45.30;;;;;;5108836;27;47101;-16
2021/12/29 04:37:56;;;;;;;1.27;0.88;;;20.20;45.30;;;;;;5108633;27;48045;-16
2021/12/29 04:40:22;;;;;;;1.27;0.88;;;20.20;45.30;;;;;;5108426;27;47435;-16
2021/12/29 04:42:49;;;;;;;1.13;0.73;;;20.20;45.30;;;;;;5108967;27;46833;-16
2021/12/29 04:45:16;;;;;;;2.22;1.00;;;20.20;45.30;;;;;;5108612;27;46988;-17
2021/12/29 04:47:45;;;;;;;1.95;0.80;;;20.20;45.30;;;;;;5108529;27;47943;-16
2021/12/29 04:50:23;;;;;;;2.10;0.85;;;20.20;45.30;;;;;;5108291;27;46794;-16
2021/12/29 04:52:52;;;;;;;1.65;0.88;;;20.20;45.20;;;;;;5108835;27;46867;-17
2021/12/29 04:55:19;;;;;;;2.45;0.93;;;20.20;45.20;;;;;;5108675;27;46820;-17
2021/12/29 04:57:46;;;;;;;1.63;0.90;;;20.20;45.20;;;;;;5108547;27;49075;-16
2021/12/29 05:00:15;;;;;;;1.48;0.85;;;20.20;45.20;;;;;;5107532;27;47378;-16
2021/12/29 05:02:42;;;;;;;2.05;1.05;;;20.20;45.20;;;;;;5108240;27;46809;-16
2021/12/29 05:05:20;;;;;;;1.10;0.77;;;20.20;45.10;;;;;;5108194;27;46995;-16
2021/12/29 05:10:33;;;;;;;1.70;0.95;;;20.30;45.20;;;;;;5107623;27;46860;-17
2021/12/29 05:12:59;;;;;;;1.73;1.00;;;20.20;45.00;;;;;;5108193;27;46993;-17
2021/12/29 05:15:26;;;;;;;3.08;1.00;;;20.20;45.20;;;;;;5108446;27;47169;-17
2021/12/29 05:17:54;;;;;;;1.77;1.05;;;20.30;45.30;;;;;;5107968;27;48113;-17
2021/12/29 05:20:21;;;;;;;0.98;0.70;;;20.30;45.20;;;;;;5107899;27;46990;-16
2021/12/29 05:22:48;;;;;;;1.23;0.85;;;20.30;45.20;;;;;;5108264;27;47001;-17
2021/12/29 05:25:14;;;;;;;1.83;1.05;;;20.30;45.20;;;;;;5107830;27;47041;-17
2021/12/29 05:27:42;;;;;;;3.90;1.17;;;20.30;45.20;;;;;;5107804;27;49083;-16
2021/12/29 05:30:10;;;;;;;1.67;0.80;;;20.30;45.30;;;;;;5107656;27;47057;-16
2021/12/29 05:32:36;;;;;;;3.05;0.93;;;20.30;45.20;;;;;;5107902;27;46889;-17
2021/12/29 05:35:03;;;;;;;1.00;0.90;;;20.30;45.10;;;;;;5108020;27;46845;-16
2021/12/29 05:37:30;;;;;;;2.40;0.93;;;20.30;45.10;;;;;;5108060;27;47262;-17
2021/12/29 05:39:57;;;;;;;1.17;0.73;;;20.30;45.10;;;;;;5107577;27;46883;-16
2021/12/29 05:42:23;;;;;;;1.10;0.85;;;20.30;45.10;;;;;;5107998;27;46790;-16
2021/12/29 05:44:52;;;;;;;2.10;0.93;;;20.30;45.10;;;;;;5106923;27;47111;-16
2021/12/29 05:47:18;;;;;;;1.83;0.90;;;20.30;45.10;;;;;;5107379;27;46816;-16
2021/12/29 05:49:45;;;;;;;1.80;0.93;;;20.30;45.10;;;;;;5107688;27;46902;-16
2021/12/29 05:52:15;;;;;;;1.83;0.90;;;20.30;45.10;;;;;;5107788;27;46996;-16
2021/12/29 05:54:42;;;;;;;1.08;0.80;;;20.30;45.10;;;;;;5107568;27;46828;-16
2021/12/29 05:57:09;;;;;;;2.20;0.90;;;20.30;45.00;;;;;;5107535;27;49109;-17
2021/12/29 05:59:36;;;;;;;1.38;0.80;;;20.30;45.10;;;;;;5107399;27;46919;-16
2021/12/29 06:02:04;;;;;;;2.08;0.85;;;20.30;45.10;;;;;;5107719;27;46887;-16
2021/12/29 06:04:31;;;;;;;2.25;0.70;;;20.30;45.10;;;;;;5107879;27;47011;-17
2021/12/29 06:06:58;;;;;;;1.50;0.75;;;20.30;45.00;;;;;;5107106;27;48151;-16
2021/12/29 06:09:25;;;;;;;1.25;0.70;;;20.30;45.00;;;;;;5107208;27;46919;-17
2021/12/29 06:11:51;;;;;;;1.63;0.90;;;20.30;45.00;;;;;;5106045;27;46819;-16
2021/12/29 06:14:18;;;;;;;1.60;0.70;;;20.30;45.10;;;;;;5107395;27;46868;-16
2021/12/29 06:16:45;;;;;;;1.77;0.90;;;20.30;45.10;;;;;;5107372;27;48222;-17
2021/12/29 06:19:13;;;;;;;2.65;1.05;;;20.30;45.00;;;;;;5107247;27;46911;-16
2021/12/29 06:21:39;;;;;;;2.28;1.02;;;20.30;45.00;;;;;;5107496;27;47052;-17
2021/12/29 06:24:07;;;;;;;1.75;0.88;;;20.30;45.00;;;;;;5107466;27;46894;-17
2021/12/29 06:26:34;;;;;;;1.73;0.93;;;20.30;45.00;;;;;;5107071;27;47127;-17
2021/12/29 06:29:01;;;;;;;2.33;1.00;;;20.30;45.00;;;;;;5107181;27;47162;-17
2021/12/29 06:31:27;;;;;;;1.55;0.95;;;20.30;45.00;;;;;;5107171;27;46855;-17
2021/12/29 06:33:54;;;;;;;2.08;0.90;;;20.30;45.00;;;;;;5106849;27;47018;-17
2021/12/29 06:36:23;;;;;;;1.10;0.88;;;20.30;45.00;;;;;;5106100;27;46814;-16
2021/12/29 06:38:49;;;;;;;1.67;1.02;;;20.30;44.90;;;;;;5106588;27;47970;-16
2021/12/29 06:41:16;;;;;;;1.92;0.82;;;20.30;45.00;;;;;;5106002;27;46934;-17
2021/12/29 06:43:43;;;;;;;3.65;1.02;;;20.30;45.00;;;;;;5106688;27;46929;-17
2021/12/29 06:46:10;;;;;;;1.90;1.00;;;20.30;45.00;;;;;;5106915;27;48002;-16
2021/12/29 06:48:36;;;;;;;1.67;0.90;;;20.30;44.90;;;;;;5106515;27;47431;-17
2021/12/29 06:51:03;;;;;;;1.88;0.98;;;20.40;45.00;;;;;;5106967;27;46998;-17
2021/12/29 06:53:32;;;;;;;2.83;0.90;;;20.40;45.00;;;;;;5106651;27;46928;-17
2021/12/29 06:55:59;;;;;;;1.55;0.90;;;20.40;45.00;;;;;;5106442;27;46903;-16
2021/12/29 06:58:26;;;;;;;2.15;0.80;;;20.30;45.00;;;;;;5106802;27;46965;-17
2021/12/29 07:00:52;;;;;;;1.73;0.80;;;20.40;45.00;;;;;;5106458;27;46826;-17
2021/12/29 07:03:19;;;;;;;2.33;1.17;;;20.40;45.00;;;;;;5106566;27;46884;-16
2021/12/29 07:05:46;;;;;;;2.55;1.10;;;20.40;45.00;;;;;;5106023;27;47857;-17
2021/12/29 07:08:14;;;;;;;1.38;0.90;;;20.40;45.00;;;;;;5106408;27;46874;-17
2021/12/29 07:10:42;;;;;;;2.20;0.98;;;20.40;45.00;;;;;;5106411;27;46864;-16
2021/12/29 07:13:09;;;;;;;1.45;0.80;;;20.40;45.00;;;;;;5106011;27;46874;-16
2021/12/29 07:15:36;;;;;;;1.88;0.90;;;20.40;45.00;;;;;;5106020;27;49045;-16
2021/12/29 07:18:03;;;;;;;1.50;0.90;;;20.40;45.00;;;;;;5116261;27;46986;-16
2021/12/29 07:20:29;;;;;;;1.20;0.90;;;20.40;45.00;;;;;;5126029;27;46996;-17
2021/12/29 07:22:56;;;;;;;1.25;0.80;;;20.40;44.90;;;;;;5126140;27;46833;-16
2021/12/29 07:25:24;;;;;;;2.53;0.95;;;20.40;44.90;;;;;;5126713;27;47863;-16
2021/12/29 07:27:52;;;;;;;1.50;0.75;;;20.40;45.00;;;;;;5126783;27;46883;-17
2021/12/29 07:30:19;;;;;;;1.73;0.80;;;20.40;45.00;;;;;;5126397;27;46826;-16
2021/12/29 07:32:46;;;;;;;1.42;0.90;;;20.40;45.00;;;;;;5127129;27;47288;-16
2021/12/29 07:35:12;;;;;;;1.42;1.02;;;20.40;44.90;;;;;;5126381;27;47923;-17
2021/12/29 07:37:39;;;;;;;2.20;0.85;;;20.40;44.90;;;;;;5126697;27;47392;-16
2021/12/29 07:40:10;;;;;;;1.83;1.00;;;20.40;44.90;;;;;;5126785;27;46994;-17
2021/12/29 07:42:37;;;;;;;1.80;1.08;;;20.40;44.90;;;;;;5126901;27;46820;-16
2021/12/29 07:45:07;;;;;;;2.05;1.00;;;20.40;45.00;;;;;;5125913;27;46916;-16
2021/12/29 07:47:34;;;;;;;2.10;0.77;;;20.40;45.00;;;;;;5126328;27;47452;-16
2021/12/29 07:50:01;;;;;;;2.28;1.08;;;20.40;44.90;;;;;;5126508;27;46872;-17
2021/12/29 07:52:28;;;;;;;3.78;1.15;;;20.40;44.90;;;;;;5126785;27;47165;-16
2021/12/29 07:54:54;;;;;;;2.35;1.10;;;20.40;44.90;;;;;;5126139;27;47842;-16
2021/12/29 07:57:21;;;;;;;2.33;1.00;;;20.40;44.90;;;;;;5126192;27;46929;-16
2021/12/29 07:59:48;;;;;;;2.03;0.82;;;20.40;45.00;;;;;;5126171;27;46891;-16
2021/12/29 08:02:18;;;;;;;1.83;1.10;;;20.40;45.00;;;;;;5126245;27;47261;-17
2021/12/29 08:04:45;;;;;;;1.67;1.00;;;20.40;44.90;;;;;;5125165;27;49844;-16
2021/12/29 08:07:11;;;;;;;1.30;1.00;;;20.40;44.90;;;;;;5126161;27;47104;-16
2021/12/29 08:09:38;;;;;;;1.95;1.10;;;20.50;44.90;;;;;;5126048;27;46886;-16
2021/12/29 08:12:05;;;;;;;3.15;0.95;;;20.40;44.90;;;;;;5126295;27;47268;-16
2021/12/29 08:14:32;;;;;;;1.30;1.00;;;20.40;44.90;;;;;;5125870;27;47067;-16
2021/12/29 08:17:01;;;;;;;1.80;0.85;;;20.40;45.00;;;;;;5125989;27;46915;-16
2021/12/29 08:19:29;;;;;;;1.17;0.85;;;20.40;44.90;;;;;;5125764;27;46858;-17
2021/12/29 08:21:56;;;;;;;1.45;0.77;;;20.40;44.90;;;;;;5126197;27;47269;-16
2021/12/29 08:24:22;;;;;;;2.38;1.00;;;20.50;44.90;;;;;;5125638;27;49119;-17
2021/12/29 08:26:49;;;;;;;1.75;1.20;;;20.40;44.90;;;;;;5126021;27;46837;-17
2021/12/29 08:29:16;;;;;;;1.92;1.20;;;20.40;44.90;;;;;;5126062;27;46739;-16
2021/12/29 08:31:42;;;;;;;1.77;1.00;;;20.40;44.90;;;;;;5126394;27;47271;-16
2021/12/29 08:34:09;;;;;;;1.70;0.90;;;20.40;45.00;;;;;;5126631;27;47969;-16
2021/12/29 08:36:37;;;;;;;2.40;0.93;;;20.50;44.90;;;;;;5129307;27;46913;-16
2021/12/29 08:39:04;;;;;;;1.98;0.90;;;20.40;44.90;;;;;;5129118;27;46891;-16
2021/12/29 08:41:31;;;;;;;0.80;0.80;;;20.50;44.90;;;;;;5129534;27;46821;-17
2021/12/29 08:43:58;;;;;;;2.70;0.93;;;20.40;44.90;;;;;;5129017;27;47124;-16
2021/12/29 08:46:24;;;;;;;1.55;0.85;;;20.40;44.90;;;;;;5129110;27;46855;-17
2021/12/29 08:48:51;;;;;;;1.60;0.95;;;20.50;45.00;;;;;;5129513;27;46991;-16
2021/12/29 08:51:19;;;;;;;2.47;0.90;;;20.50;44.90;;;;;;5129637;27;46969;-16
2021/12/29 08:53:47;;;;;;;2.92;1.20;;;20.50;44.90;;;;;;5129111;27;49145;-16
2021/12/29 08:56:16;;;;;;;2.30;1.05;;;20.50;44.90;;;;;;5129063;27;46887;-16
2021/12/29 08:58:43;;;;;;;2.25;1.10;;;20.50;44.90;;;;;;5128929;27;46837;-16
2021/12/29 09:01:09;;;;;;;2.63;1.08;;;20.50;44.90;;;;;;5129332;27;46822;-16
2021/12/29 09:03:36;;;;;;;1.48;0.77;;;20.50;44.90;;;;;;5128772;27;47075;-16
2021/12/29 09:06:03;;;;;;;1.20;1.10;;;20.50;44.90;;;;;;5129146;27;47414;-16
2021/12/29 09:08:30;;;;;;;2.30;1.10;;;20.50;44.90;;;;;;5129186;27;46945;-16
2021/12/29 09:10:58;;;;;;;3.90;1.23;;;20.50;44.90;;;;;;5129280;27;46883;-17
2021/12/29 09:13:24;;;;;;;2.03;0.90;;;20.50;44.90;;;;;;5128924;27;48764;-16
2021/12/29 09:15:56;;;;;;;2.70;1.38;;;20.50;45.50;;;;;;5129009;27;46995;-16
2021/12/29 09:18:23;;;;;;;2.75;1.00;;;20.40;44.90;;;;;;5128996;27;46965;-17
2021/12/29 09:20:50;;;;;;;2.72;1.20;;;20.50;44.90;;;;;;5128616;27;46844;-16
2021/12/29 09:23:16;;;;;;;2.53;1.00;;;20.50;44.90;;;;;;5129087;27;47985;-17
2021/12/29 09:25:44;;;;;;;2.60;0.82;;;20.50;44.90;;;;;;5128652;27;47511;-16
2021/12/29 09:28:13;;;;;;;2.80;1.02;;;20.50;44.90;;;;;;5128352;27;46845;-17
2021/12/29 09:30:42;;;;;;;1.88;0.80;;;20.50;44.90;;;;;;5128545;27;46791;-16
2021/12/29 09:33:08;;;;;;;1.88;0.90;;;20.50;44.90;;;;;;5128278;27;46886;-16
2021/12/29 09:35:35;;;;;;;1.63;1.05;;;20.50;45.50;;;;;;5128395;27;46946;-16
2021/12/29 09:38:02;;;;;;;2.80;1.17;;;20.50;45.50;;;;;;5128767;27;46887;-16
2021/12/29 09:40:29;;;;;;;2.15;1.02;;;20.50;44.90;;;;;;5128666;27;47304;-16
2021/12/29 09:42:56;;;;;;;2.15;1.10;;;20.50;44.90;;;;;;5128383;27;48905;-16
2021/12/29 09:45:24;;;;;;;4.22;1.08;;;20.50;45.10;;;;;;5127950;27;47476;-17
2021/12/29 09:47:51;;;;;;;4.47;1.55;;;20.50;45.10;;;;;;5128280;27;46893;-16
2021/12/29 09:50:19;;;;;;;2.33;0.93;;;20.50;45.00;;;;;;5128276;27;47331;-16
2021/12/29 09:52:46;;;;;;;2.17;1.00;;;20.50;44.90;;;;;;5128488;27;48330;-17
2021/12/29 09:55:14;;;;;;;1.92;1.02;;;20.50;45.00;;;;;;5128113;27;46970;-16
2021/12/29 09:57:44;;;;;;;1.05;0.77;;;20.50;45.00;;;;;;5128581;27;46876;-17
2021/12/29 10:00:13;;;;;;;3.58;1.00;;;20.50;45.00;;;;;;5128226;27;47221;-17
2021/12/29 10:02:41;;;;;;;1.35;1.00;;;20.50;45.00;;;;;;5128132;27;47429;-17
2021/12/29 10:05:08;;;;;;;1.65;0.70;;;20.60;45.00;;;;;;5127927;27;47093;-17
2021/12/29 10:07:34;;;;;;;1.55;0.98;;;20.60;45.00;;;;;;5127932;27;46818;-17
2021/12/29 10:10:01;;;;;;;1.20;1.00;;;20.60;44.90;;;;;;5128287;27;47262;-17
2021/12/29 10:12:28;;;;;;;0.90;0.75;;;20.60;45.00;;;;;;5127877;27;47041;-17
2021/12/29 10:14:55;;;;;;;2.08;1.02;;;20.50;44.90;;;;;;5127734;27;46885;-17
2021/12/29 10:17:25;;;;;;;0.93;0.63;;;20.50;44.90;;;;;;5128060;27;47016;-17
2021/12/29 10:20:02;;;;;;;2.65;1.00;;;20.60;44.90;;;;;;5128235;27;46866;-18
2021/12/29 10:22:29;;;;;;;4.05;0.80;;;20.60;44.90;;;;;;5127962;27;48226;-17
2021/12/29 10:25:04;;;;;;;2.10;0.75;;;20.60;44.90;;;;;;5127624;27;47497;-18
2021/12/29 10:27:31;;;;;;;3.78;1.23;;;20.50;44.90;;;;;;5127858;27;46978;-17
2021/12/29 10:29:58;;;;;;;1.63;0.85;;;20.50;44.90;;;;;;5127804;27;46889;-17
2021/12/29 10:32:25;;;;;;;2.10;1.00;;;20.50;44.90;;;;;;5127183;27;47041;-17
2021/12/29 10:34:52;;;;;;;4.55;0.90;;;20.60;44.90;;;;;;5123231;27;47043;-17
2021/12/29 10:37:20;;;;;;;1.25;0.80;;;20.60;44.90;;;;;;5126831;27;46997;-17
2021/12/29 10:39:49;;;;;;;1.58;0.70;;;20.60;44.90;;;;;;5104385;27;46838;-17
2021/12/29 10:42:17;;;;;;;0.70;0.70;;;20.60;44.80;;;;;;5106396;27;48332;-17
2021/12/29 10:44:45;;;;;;;3.97;0.90;;;20.60;44.90;;;;;;5106481;27;47029;-17
2021/12/29 10:47:15;;;;;;;0.80;0.52;;;20.60;44.90;;;;;;5106331;27;46849;-27
2021/12/29 10:49:49;;;;;;;3.70;0.98;;;20.60;44.90;;;;;;5106842;27;46938;-16
2021/12/29 10:52:16;;;;;;;3.65;0.93;;;20.60;44.90;;;;;;5105909;27;48825;-22
2021/12/29 10:54:44;;;;;;;2.80;1.10;;;20.60;44.80;;;;;;5106199;27;47499;-16
2021/12/29 10:57:12;;;;;;;3.35;1.40;;;20.60;44.80;;;;;;5104941;27;46856;-17
2021/12/29 10:59:41;;;;;;;1.58;0.80;;;20.60;44.80;;;;;;5106343;27;46960;-17
2021/12/29 11:02:08;;;;;;;3.05;1.13;;;20.60;44.80;;;;;;5105487;27;47161;-17
2021/12/29 11:04:34;;;;;;;3.08;1.02;;;20.60;44.90;;;;;;5111868;27;46960;-17
2021/12/29 11:07:02;;;;;;;2.83;0.80;;;20.60;44.90;;;;;;5126764;27;47000;-17
2021/12/29 11:09:31;;;;;;;4.68;1.25;;;20.60;44.90;;;;;;5112892;27;47375;-17
2021/12/29 11:12:00;;;;;;;1.70;0.90;;;20.60;45.00;;;;;;5122078;27;46875;-17
2021/12/29 11:14:28;;;;;;;4.20;0.80;;;20.60;45.00;;;;;;5111054;27;47439;-17
2021/12/29 11:17:02;;;;;;;3.78;1.20;;;20.60;45.10;;;;;;5106389;27;46875;-17
2021/12/29 11:19:29;;;;;;;2.80;1.15;;;20.60;45.10;;;;;;5106102;27;46823;-17
2021/12/29 11:22:08;;;;;;;2.22;1.00;;;20.70;45.10;;;;;;5106167;27;48908;-17
2021/12/29 11:24:35;;;;;;;3.92;1.05;;;20.70;45.10;;;;;;5106265;27;47008;-17
2021/12/29 11:27:08;;;;;;;2.25;1.10;;;20.70;45.10;;;;;;5105683;27;47014;-17
2021/12/29 11:29:35;;;;;;;1.13;0.90;;;20.70;45.10;;;;;;5106491;27;47137;-17
2021/12/29 11:32:03;;;;;;;2.97;1.00;;;20.70;45.10;;;;;;5105984;27;49064;-17
2021/12/29 11:34:30;;;;;;;3.45;0.98;;;20.70;45.10;;;;;;5105648;27;47110;-17
2021/12/29 11:37:07;;;;;;;4.85;0.82;;;20.70;45.10;;;;;;5106174;27;46894;-16
2021/12/29 11:39:36;;;;;;;1.75;1.00;;;20.70;45.10;;;;;;5106298;27;47193;-17
2021/12/29 11:42:04;;;;;;;1.35;0.90;;;20.70;45.00;;;;;;5105961;27;48259;-17
2021/12/29 11:44:31;;;;;;;1.73;0.88;;;20.70;45.00;;;;;;5105599;27;46877;-17
2021/12/29 11:46:58;;;;;;;1.52;0.80;;;20.70;45.00;;;;;;5111246;27;46959;-17
2021/12/29 11:49:25;;;;;;;2.50;0.95;;;20.70;45.00;;;;;;5125894;27;46979;-17
2021/12/29 11:51:55;;;;;;;2.35;1.00;;;20.70;45.10;;;;;;5126444;27;48020;-17
2021/12/29 11:54:25;;;;;;;2.78;1.13;;;20.70;45.00;;;;;;5125988;27;47007;-17
2021/12/29 11:56:52;;;;;;;2.05;1.02;;;20.80;45.10;;;;;;5125844;27;46957;-17
2021/12/29 11:59:20;;;;;;;3.08;0.90;;;20.80;45.10;;;;;;5126399;27;46882;-17
2021/12/29 12:01:53;;;;;;;2.05;1.00;;;20.80;45.00;;;;;;5124775;27;48223;-17
2021/12/29 12:04:20;;;;;;;2.22;1.05;;;20.80;45.10;;;;;;5125818;27;47101;-17
2021/12/29 12:06:47;;;;;;;1.67;1.00;;;20.80;45.10;;;;;;5126170;27;47005;-17
2021/12/29 12:09:15;;;;;;;2.45;0.90;;;20.80;45.10;;;;;;5127232;27;47288;-16
2021/12/29 12:11:44;;;;;;;1.35;1.00;;;20.80;45.10;;;;;;5129262;27;49024;-17
2021/12/29 12:14:23;;;;;;;1.38;0.98;;;20.80;45.10;;;;;;5129554;27;47383;-16
2021/12/29 12:16:51;;;;;;;2.33;0.80;;;20.80;45.00;;;;;;5129681;27;46810;-17
2021/12/29 12:19:18;;;;;;;2.58;0.80;;;20.80;45.10;;;;;;5129750;27;47290;-17
2021/12/29 12:21:45;;;;;;;2.38;0.98;;;20.80;45.10;;;;;;5130031;27;48224;-17
2021/12/29 12:24:15;;;;;;;1.63;1.08;;;20.80;45.10;;;;;;5129644;27;47097;-17
2021/12/29 12:26:55;;;;;;;1.17;0.82;;;20.80;45.10;;;;;;5130029;27;46913;-17
2021/12/29 12:29:24;;;;;;;2.03;0.82;;;20.80;45.10;;;;;;5129811;27;46837;-17
2021/12/29 12:32:01;;;;;;;1.50;0.80;;;20.90;45.10;;;;;;5129683;27;46912;-16
2021/12/29 12:34:28;;;;;;;2.20;1.00;;;20.90;45.10;;;;;;5129486;27;46799;-17
2021/12/29 12:36:55;;;;;;;2.22;0.80;;;20.90;45.10;;;;;;5129830;27;46785;-17
2021/12/29 12:39:22;;;;;;;1.25;1.00;;;20.90;45.10;;;;;;5129679;27;46959;-17
2021/12/29 12:41:49;;;;;;;2.47;1.00;;;20.80;45.10;;;;;;5129147;27;49081;-17
2021/12/29 12:44:19;;;;;;;2.08;0.70;;;20.90;45.20;;;;;;5128949;27;46979;-17
2021/12/29 12:46:48;;;;;;;1.38;0.80;;;20.90;45.20;;;;;;5129337;27;46823;-17
2021/12/29 12:49:16;;;;;;;0.82;0.70;;;20.90;45.10;;;;;;5129391;27;46930;-17
2021/12/29 12:51:43;;;;;;;2.10;0.70;;;20.90;45.10;;;;;;5129277;27;49024;-17
2021/12/29 12:54:19;;;;;;;1.20;0.88;;;20.90;45.10;;;;;;5128599;27;47401;-17
2021/12/29 12:56:46;;;;;;;1.05;0.70;;;20.90;45.20;;;;;;5129406;27;46879;-17